Time;durP1;ratioP1;P1;durP2;ratioP2;P2;SDS_P1;SDS_P2;PMS_P1;PMS_P2;Temp;Humidity;BMP_temperature;BMP_pressure;BME280_temperature;BME280_humidity;BME280_pressure;Samples;Min_cycle;Max_cycle;Signal;HPM_P1;HPM_P2
2021/07/06 00:00:51;;;;;;;8.48;1.88;;;;;;;19.00;82.55;100251.03;4985312;28;20108;-72
2021/07/06 00:03:18;;;;;;;17.70;2.88;;;;;;;18.94;82.69;100249.63;5006538;28;20125;-72
2021/07/06 00:05:45;;;;;;;8.80;1.83;;;;;;;18.94;82.74;100258.09;4985835;28;20046;-68
2021/07/06 00:08:12;;;;;;;4.28;1.73;;;;;;;18.96;82.39;100261.41;4988162;28;20458;-69
2021/07/06 00:10:39;;;;;;;13.82;2.08;;;;;;;18.95;82.38;100242.78;4985095;28;20122;-69
2021/07/06 00:13:06;;;;;;;15.77;2.40;;;;;;;18.88;82.81;100236.84;4978533;28;20133;-70
2021/07/06 00:15:34;;;;;;;12.50;2.40;;;;;;;18.78;82.88;100220.28;4982281;28;20097;-69
2021/07/06 00:18:02;;;;;;;15.57;2.55;;;;;;;19.00;82.50;100250.22;4988610;28;20046;-69
2021/07/06 00:20:29;;;;;;;10.50;1.83;;;;;;;18.97;82.74;100246.06;4986570;28;20133;-68
2021/07/06 00:22:58;;;;;;;12.18;2.42;;;;;;;19.00;82.41;100250.22;4982948;28;20081;-67
2021/07/06 00:25:25;;;;;;;7.55;2.10;;;;;;;18.96;82.61;100244.41;4988245;28;20074;-69
2021/07/06 00:27:53;;;;;;;7.45;2.47;;;;;;;18.88;82.58;100237.66;4983608;28;20134;-69
2021/07/06 00:30:21;;;;;;;15.52;2.92;;;;;;;18.85;82.51;100226.22;4983516;28;20054;-70
2021/07/06 00:32:48;;;;;;;9.35;2.72;;;;;;;18.85;82.34;100220.56;4979702;28;20086;-70
2021/07/06 00:35:16;;;;;;;10.32;1.55;;;;;;;18.87;82.67;100229.50;4992193;28;20089;-75
2021/07/06 00:37:43;;;;;;;13.07;2.47;;;;;;;18.84;82.43;100230.22;4981957;28;20137;-69
2021/07/06 00:40:11;;;;;;;7.93;2.17;;;;;;;18.90;82.54;100223.16;4992770;28;20042;-66
2021/07/06 00:42:43;;;;;;;14.00;2.85;;;;;;;18.89;82.63;100221.50;4982421;28;20558;-64
2021/07/06 00:45:12;;;;;;;12.50;2.15;;;;;;;18.92;82.50;100227.31;4988847;28;20492;-64
2021/07/06 00:47:40;;;;;;;3.47;1.73;;;;;;;18.88;82.71;100219.88;4989903;28;20133;-65
2021/07/06 00:50:12;;;;;;;29.60;3.13;;;;;;;18.85;82.68;100223.38;4988558;28;20038;-66
2021/07/06 00:52:39;;;;;;;19.63;2.45;;;;;;;18.80;82.58;100220.75;4990047;28;20490;-67
2021/07/06 00:55:07;;;;;;;2.38;1.35;;;;;;;18.85;82.66;100218.53;5000470;28;20078;-66
2021/07/06 00:57:35;;;;;;;24.40;2.78;;;;;;;18.82;82.38;100226.91;4987912;28;20045;-65
2021/07/06 01:00:17;;;;;;;11.98;2.10;;;;;;;18.76;82.92;100223.44;4981995;28;20097;-66
2021/07/06 01:02:44;;;;;;;7.25;1.90;;;;;;;18.80;82.64;100223.56;4979598;28;20075;-68
2021/07/06 01:05:15;;;;;;;18.73;2.47;;;;;;;18.80;82.46;100224.38;4992125;28;20125;-66
2021/07/06 01:07:42;;;;;;;9.15;2.25;;;;;;;18.61;82.67;100198.56;4985204;28;20471;-65
2021/07/06 01:10:10;;;;;;;10.60;2.17;;;;;;;18.81;82.71;100228.91;4992758;28;20054;-64
2021/07/06 01:12:38;;;;;;;8.65;1.95;;;;;;;18.81;82.46;100231.72;4987285;28;20138;-65
2021/07/06 01:15:11;;;;;;;11.10;1.45;;;;;;;18.72;82.95;100213.16;4983861;28;20128;-65
2021/07/06 01:17:40;;;;;;;7.93;1.67;;;;;;;18.67;82.73;100209.34;4988263;28;20070;-65
2021/07/06 01:20:14;;;;;;;12.18;2.17;;;;;;;18.80;82.74;100223.56;4981530;28;20469;-65
2021/07/06 01:22:43;;;;;;;12.45;1.98;;;;;;;18.81;82.43;100225.25;4991724;28;20077;-65
2021/07/06 01:25:12;;;;;;;7.75;2.25;;;;;;;18.72;82.29;100205.50;4992832;28;20797;-65
2021/07/06 01:27:40;;;;;;;8.38;2.28;;;;;;;18.76;82.55;100228.25;4990149;28;20042;-65
2021/07/06 01:30:11;;;;;;;9.00;1.63;;;;;;;18.75;82.57;100229.44;4979395;28;20073;-65
2021/07/06 01:32:40;;;;;;;10.27;1.98;;;;;;;18.79;82.52;100224.75;4983944;28;20047;-65
2021/07/06 01:35:12;;;;;;;4.30;1.90;;;;;;;18.76;82.63;100229.09;4991712;28;20046;-64
2021/07/06 01:37:59;;;;;;;11.27;1.92;;;;;;;18.78;83.01;100229.59;4983186;28;20141;-66
2021/07/06 01:40:29;;;;;;;24.85;1.98;;;;;;;18.64;82.58;100198.69;4977480;28;20073;-63
2021/07/06 01:42:57;;;;;;;15.88;1.90;;;;;;;18.81;82.83;100225.25;4979731;28;20046;-65
2021/07/06 01:45:27;;;;;;;13.55;1.60;;;;;;;18.79;82.67;100214.25;4993332;28;20061;-65
2021/07/06 01:47:56;;;;;;;;;;;;;;;18.80;83.04;100210.25;4986285;28;20134;-65
2021/07/06 01:50:26;;;;;;;10.68;3.13;;;;;;;18.70;82.98;100191.69;4990626;28;20020;-64
2021/07/06 01:52:55;;;;;;;5.80;1.50;;;;;;;18.90;82.84;100223.16;4987434;28;20453;-63
2021/07/06 01:55:26;;;;;;;6.78;1.70;;;;;;;18.88;82.99;100217.84;4979290;28;20499;-63
2021/07/06 01:57:55;;;;;;;8.55;1.75;;;;;;;18.93;82.65;100216.81;4991158;28;20125;-64
2021/07/06 02:00:24;;;;;;;7.13;1.88;;;;;;;18.92;82.74;100212.34;4982274;28;20571;-63
2021/07/06 02:02:55;;;;;;;18.65;1.60;;;;;;;18.79;82.58;100187.97;4978118;28;20093;-63
2021/07/06 02:05:26;;;;;;;11.95;2.30;;;;;;;18.93;82.66;100211.97;4991487;28;20543;-63
2021/07/06 02:07:54;;;;;;;5.55;1.88;;;;;;;18.98;82.65;100210.13;4992720;28;20129;-62
2021/07/06 02:10:22;;;;;;;21.42;2.40;;;;;;;18.98;82.71;100210.97;4985456;28;20076;-61
2021/07/06 02:12:49;;;;;;;7.05;1.90;;;;;;;18.94;82.44;100202.34;4979206;28;20049;-61
2021/07/06 02:15:16;;;;;;;15.93;2.70;;;;;;;18.98;82.65;100208.13;4987674;28;20058;-62
2021/07/06 02:17:45;;;;;;;13.10;2.28;;;;;;;18.99;82.85;100198.47;4992868;28;20129;-61
2021/07/06 02:20:17;;;;;;;5.22;1.48;;;;;;;19.01;82.32;100198.94;4990926;28;20046;-62
2021/07/06 02:22:45;;;;;;;16.27;2.05;;;;;;;18.98;82.57;100196.81;5001093;28;20069;-62
2021/07/06 02:25:14;;;;;;;4.95;2.30;;;;;;;18.94;82.35;100193.84;4988575;28;20038;-62
2021/07/06 02:27:45;;;;;;;17.67;2.30;;;;;;;18.92;82.24;100199.00;4979606;28;20088;-62
2021/07/06 02:30:18;;;;;;;14.07;2.20;;;;;;;18.95;82.52;100197.50;4977028;28;20054;-62
2021/07/06 02:32:46;;;;;;;6.35;2.20;;;;;;;18.99;82.21;100201.28;4979012;28;20135;-65
2021/07/06 02:35:14;;;;;;;9.32;1.85;;;;;;;19.01;82.40;100209.41;4981100;28;20141;-64
2021/07/06 02:37:42;;;;;;;23.38;3.00;;;;;;;18.91;82.12;100193.72;4989952;28;20101;-64
2021/07/06 02:40:11;;;;;;;11.98;1.73;;;;;;;19.00;82.36;100219.09;4983211;28;20053;-62
2021/07/06 02:42:39;;;;;;;10.10;2.13;;;;;;;18.98;82.22;100213.78;4989980;28;20089;-63
2021/07/06 02:45:08;;;;;;;12.00;2.17;;;;;;;18.92;82.36;100218.00;4982748;28;20138;-63
2021/07/06 02:47:35;;;;;;;9.13;2.00;;;;;;;18.87;82.29;100212.53;4983218;28;20462;-63
2021/07/06 02:50:04;;;;;;;9.85;3.20;;;;;;;18.82;82.33;100190.94;4991393;28;20056;-63
2021/07/06 02:52:31;;;;;;;16.90;2.47;;;;;;;18.90;82.48;100211.84;4981673;28;20085;-63
2021/07/06 02:54:58;;;;;;;18.80;3.22;;;;;;;18.96;82.24;100226.63;4987510;28;20101;-63
2021/07/06 02:57:35;;;;;;;26.95;2.40;;;;;;;18.90;82.37;100217.50;4992578;28;20125;-63
2021/07/06 03:00:11;;;;;;;16.75;1.77;;;;;;;18.81;82.19;100213.94;4984082;28;20130;-64
2021/07/06 03:02:39;;;;;;;20.02;2.38;;;;;;;18.74;81.82;100219.31;4976239;28;20051;-63
2021/07/06 03:05:09;;;;;;;7.43;2.60;;;;;;;18.60;81.88;100220.38;4982797;28;20050;-63
2021/07/06 03:07:38;;;;;;;22.58;3.15;;;;;;;18.60;81.59;100225.19;4976381;28;20134;-63
2021/07/06 03:10:08;;;;;;;23.30;3.20;;;;;;;18.56;81.80;100221.38;4990385;28;20133;-63
2021/07/06 03:12:36;;;;;;;21.83;2.58;;;;;;;18.53;81.61;100233.38;4985375;28;20137;-62
2021/07/06 03:15:06;;;;;;;10.10;1.75;;;;;;;18.48;81.48;100237.22;4994806;28;20041;-63
2021/07/06 03:17:33;;;;;;;15.20;2.50;;;;;;;18.41;81.75;100234.94;4982460;28;20140;-62
2021/07/06 03:20:02;;;;;;;14.18;2.08;;;;;;;18.43;81.60;100243.09;4990434;28;20534;-62
2021/07/06 03:22:29;;;;;;;21.60;2.03;;;;;;;18.41;81.96;100228.47;4992253;28;20050;-61
2021/07/06 03:24:57;;;;;;;5.22;1.80;;;;;;;18.38;81.38;100231.97;4989586;28;20078;-61
2021/07/06 03:27:24;;;;;;;6.78;1.70;;;;;;;18.32;81.38;100238.97;4986842;28;20202;-63
2021/07/06 03:29:51;;;;;;;17.17;2.53;;;;;;;18.29;81.52;100250.97;4983689;28;20129;-63
2021/07/06 03:32:18;;;;;;;16.45;2.15;;;;;;;18.27;81.20;100250.50;4981802;28;20491;-63
2021/07/06 03:34:46;;;;;;;11.18;2.13;;;;;;;18.22;81.40;100238.22;4988227;28;20073;-64
2021/07/06 03:37:12;;;;;;;21.13;2.33;;;;;;;18.29;81.59;100248.13;4988231;28;20145;-63
2021/07/06 03:39:41;;;;;;;17.50;2.88;;;;;;;18.27;81.57;100244.84;4981757;28;20137;-67
2021/07/06 03:42:09;;;;;;;19.63;2.25;;;;;;;18.33;81.60;100243.47;4979221;28;20057;-68
2021/07/06 03:44:37;;;;;;;24.85;2.13;;;;;;;18.28;81.45;100232.34;4987369;28;20110;-65
2021/07/06 03:47:05;;;;;;;19.08;3.40;;;;;;;18.40;81.62;100243.78;4987327;28;20069;-65
2021/07/06 03:49:33;;;;;;;12.50;2.50;;;;;;;18.41;81.51;100234.13;4987859;28;20054;-68
2021/07/06 03:52:01;;;;;;;16.30;2.50;;;;;;;18.37;81.62;100241.63;4988212;28;20129;-68
2021/07/06 03:54:28;;;;;;;13.25;2.85;;;;;;;18.32;81.40;100238.97;4980560;28;20145;-67
2021/07/06 03:56:56;;;;;;;12.35;2.55;;;;;;;18.34;81.26;100247.97;4984343;28;20050;-71
2021/07/06 03:59:23;;;;;;;20.80;3.13;;;;;;;18.22;81.05;100232.56;4985705;28;20073;-71
2021/07/06 04:01:50;;;;;;;30.02;3.22;;;;;;;18.34;81.33;100233.81;4981529;28;20085;-64
2021/07/06 04:04:18;;;;;;;17.20;2.25;;;;;;;18.26;80.84;100221.41;4984868;28;20049;-65
2021/07/06 04:06:46;;;;;;;9.50;2.45;;;;;;;18.15;81.03;100215.31;4987568;28;20129;-65
2021/07/06 04:09:13;;;;;;;11.95;2.03;;;;;;;18.16;80.98;100228.25;4976199;28;20081;-62
2021/07/06 04:11:40;;;;;;;12.27;2.40;;;;;;;18.29;80.95;100248.97;5003721;28;20157;-63
2021/07/06 04:14:07;;;;;;;16.50;2.40;;;;;;;18.21;80.80;100247.84;4981762;28;20130;-63
2021/07/06 04:16:34;;;;;;;12.25;2.03;;;;;;;18.26;80.70;100254.50;4986341;28;20047;-63
2021/07/06 04:19:02;;;;;;;15.40;2.47;;;;;;;18.29;80.89;100259.44;4974706;28;20054;-63
2021/07/06 04:21:31;;;;;;;18.98;3.22;;;;;;;18.22;81.11;100255.16;4986825;28;20928;-63
2021/07/06 04:23:58;;;;;;;16.83;3.03;;;;;;;18.18;80.92;100257.00;4984462;28;20078;-63
2021/07/06 04:26:27;;;;;;;22.13;3.85;;;;;;;18.17;81.03;100251.69;4986627;28;20046;-63
2021/07/06 04:28:54;;;;;;;8.52;1.98;;;;;;;18.24;81.03;100268.94;4982916;28;20070;-63
2021/07/06 04:31:21;;;;;;;16.35;2.63;;;;;;;18.23;81.14;100261.66;4988164;28;20467;-63
2021/07/06 04:33:47;;;;;;;14.27;2.58;;;;;;;18.22;80.99;100271.28;4985110;28;20656;-63
2021/07/06 04:36:14;;;;;;;15.48;2.10;;;;;;;18.26;81.34;100265.78;4989222;28;20515;-63
2021/07/06 04:38:41;;;;;;;15.88;2.60;;;;;;;18.17;81.31;100263.81;4983404;28;20149;-63
2021/07/06 04:41:08;;;;;;;9.70;2.25;;;;;;;18.19;81.12;100275.63;4984620;28;20081;-63
2021/07/06 04:43:35;;;;;;;10.85;2.45;;;;;;;18.15;81.19;100268.13;4989253;28;20077;-63
2021/07/06 04:46:02;;;;;;;14.63;2.72;;;;;;;18.05;80.86;100260.91;4976251;28;20081;-63
2021/07/06 04:48:30;;;;;;;14.82;2.72;;;;;;;18.07;80.60;100269.84;4984630;28;20053;-70
2021/07/06 04:51:03;;;;;;;14.30;2.15;;;;;;;18.02;80.60;100266.34;4985050;28;20048;-65
2021/07/06 04:53:30;;;;;;;13.48;2.30;;;;;;;17.97;80.44;100273.03;4988918;28;20137;-66
2021/07/06 04:55:58;;;;;;;7.38;2.72;;;;;;;18.01;80.30;100274.00;4985534;28;20153;-66
2021/07/06 04:58:25;;;;;;;21.58;3.42;;;;;;;17.99;80.73;100287.66;4988566;28;20048;-68
2021/07/06 05:00:52;;;;;;;15.75;2.70;;;;;;;17.99;80.54;100291.31;4989137;28;20085;-65
2021/07/06 05:03:19;;;;;;;18.23;3.30;;;;;;;17.99;80.90;100296.97;4982227;28;20049;-67
2021/07/06 05:05:46;;;;;;;8.98;2.22;;;;;;;17.94;80.57;100293.47;4991439;28;20479;-70
2021/07/06 05:08:13;;;;;;;11.85;2.20;;;;;;;17.91;80.47;100300.63;4990227;28;20073;-71
2021/07/06 05:10:40;;;;;;;11.55;2.17;;;;;;;17.80;80.17;100288.03;4986028;28;20455;-68
2021/07/06 05:13:11;;;;;;;16.85;2.50;;;;;;;17.79;79.95;100305.31;4991021;28;20074;-71
2021/07/06 05:15:38;;;;;;;16.23;2.25;;;;;;;17.75;80.11;100313.59;4993057;28;20046;-70
2021/07/06 05:18:05;;;;;;;13.40;3.05;;;;;;;17.69;79.75;100298.81;4992247;28;20097;-70
2021/07/06 05:20:32;;;;;;;12.18;2.15;;;;;;;17.66;79.55;100291.00;4991343;28;20058;-69
2021/07/06 05:22:59;;;;;;;12.48;2.90;;;;;;;17.65;79.81;100299.84;5003460;28;20491;-69
2021/07/06 05:25:26;;;;;;;15.38;2.70;;;;;;;17.62;79.84;100297.69;4990707;28;20468;-70
2021/07/06 05:27:57;;;;;;;14.57;2.65;;;;;;;17.71;79.80;100313.44;4982608;28;20495;-70
2021/07/06 05:30:24;;;;;;;12.38;2.25;;;;;;;17.72;nan;100314.28;4990304;28;20149;-70
2021/07/06 05:32:50;;;;;;;15.00;2.22;;;;;;;17.65;80.17;100306.31;4982547;28;20050;-62
2021/07/06 05:35:18;;;;;;;9.68;2.95;;;;;;;17.68;80.34;100302.81;4990085;28;20046;-64
2021/07/06 05:37:45;;;;;;;12.70;2.13;;;;;;;17.64;80.33;100309.44;4980462;28;20447;-68
2021/07/06 05:40:12;;;;;;;17.60;3.45;;;;;;;17.69;80.78;100310.13;4981745;28;20423;-70
2021/07/06 05:42:41;;;;;;;19.52;2.70;;;;;;;17.74;80.49;100328.88;4987584;28;22751;-66
2021/07/06 05:45:09;;;;;;;10.95;2.28;;;;;;;17.74;80.56;100317.56;4995062;28;20046;-67
2021/07/06 05:47:38;;;;;;;13.32;2.13;;;;;;;17.79;80.72;100325.09;4984984;28;20042;-64
2021/07/06 05:50:07;;;;;;;15.00;2.28;;;;;;;17.80;80.85;100315.44;4989554;28;20074;-69
2021/07/06 05:52:35;;;;;;;32.45;2.53;;;;;;;17.84;80.63;100344.69;4989080;28;20125;-72
2021/07/06 05:55:04;;;;;;;6.68;1.98;;;;;;;17.81;80.37;100328.41;4986046;28;20565;-71
2021/07/06 05:57:31;;;;;;;7.00;2.72;;;;;;;17.74;80.64;100329.72;4989050;28;20117;-76
2021/07/06 06:00:00;;;;;;;14.88;2.30;;;;;;;17.74;80.74;100334.53;5003809;28;20113;-76
2021/07/06 06:02:28;;;;;;;9.80;1.77;;;;;;;17.79;80.37;100336.41;4993017;28;20046;-76
2021/07/06 06:04:55;;;;;;;11.05;1.70;;;;;;;17.84;80.68;100339.03;4990672;28;20038;-74
2021/07/06 06:07:23;;;;;;;12.05;2.00;;;;;;;17.83;80.77;100338.22;5004335;28;20435;-78
2021/07/06 06:09:51;;;;;;;5.18;2.38;;;;;;;17.72;80.83;100345.34;4985739;28;20125;-75
2021/07/06 06:12:18;;;;;;;8.80;1.92;;;;;;;17.75;80.73;100341.84;4989191;28;20046;-75
2021/07/06 06:14:45;;;;;;;8.30;2.00;;;;;;;17.71;80.90;100350.16;4988591;28;20122;-71
2021/07/06 06:17:12;;;;;;;11.70;2.72;;;;;;;17.62;80.75;100343.69;4987215;28;21833;-70
2021/07/06 06:19:40;;;;;;;6.53;1.75;;;;;;;17.68;81.01;100347.19;4984259;28;20156;-68
2021/07/06 06:22:07;;;;;;;6.55;1.70;;;;;;;17.86;81.34;100348.00;4987894;28;20046;-73
2021/07/06 06:24:34;;;;;;;13.70;2.20;;;;;;;18.16;81.15;100352.59;4992170;28;20137;-76
2021/07/06 06:27:01;;;;;;;12.55;2.13;;;;;;;18.30;81.49;100340.25;4986993;28;20062;-76
2021/07/06 06:29:29;;;;;;;9.63;1.70;;;;;;;18.48;81.69;100341.84;4987077;28;20050;-76
2021/07/06 06:31:56;;;;;;;8.02;1.77;;;;;;;18.46;81.60;100338.50;4979601;28;20134;-78
2021/07/06 06:34:23;;;;;;;10.35;2.38;;;;;;;18.46;81.79;100347.00;4992131;28;20050;-79
2021/07/06 06:36:50;;;;;;;6.32;1.70;;;;;;;18.41;81.07;100342.38;4989953;28;20150;-79
2021/07/06 06:39:17;;;;;;;8.65;2.25;;;;;;;18.38;80.99;100342.22;4985548;28;20125;-78
2021/07/06 06:41:44;;;;;;;9.20;1.25;;;;;;;18.40;80.81;100320.94;4990694;28;20134;-78
2021/07/06 06:44:11;;;;;;;10.05;1.80;;;;;;;18.58;81.09;100341.47;4989770;28;20082;-78
2021/07/06 06:46:37;;;;;;;9.25;2.13;;;;;;;18.60;80.98;100347.63;4997821;28;20074;-80
2021/07/06 06:49:05;;;;;;;11.98;2.33;;;;;;;18.63;80.88;100341.28;4991805;28;20046;-75
2021/07/06 06:51:32;;;;;;;8.50;2.65;;;;;;;18.72;80.71;100340.44;4979474;28;20078;-79
2021/07/06 06:54:01;;;;;;;9.13;1.65;;;;;;;18.95;80.79;100350.31;4986110;28;20137;-79
2021/07/06 06:56:29;;;;;;;10.80;1.42;;;;;;;19.16;80.49;100350.34;4982431;28;20586;-79
2021/07/06 06:58:56;;;;;;;7.53;2.05;;;;;;;19.15;80.24;100346.69;4989373;28;20121;-80
2021/07/06 07:01:23;;;;;;;3.45;1.65;;;;;;;19.15;80.66;100332.53;4979123;28;20078;-79
2021/07/06 07:03:50;;;;;;;4.90;1.35;;;;;;;19.33;80.43;100366.38;4983199;28;20057;-78
2021/07/06 07:06:17;;;;;;;5.85;1.60;;;;;;;19.27;80.30;100379.88;4981892;28;20039;-69
2021/07/06 07:08:44;;;;;;;3.92;1.60;;;;;;;19.17;80.54;100363.31;4989463;28;20074;-72
2021/07/06 07:11:11;;;;;;;12.40;2.25;;;;;;;19.24;80.04;100376.91;4985403;28;20503;-71
2021/07/06 07:13:38;;;;;;;8.60;1.40;;;;;;;19.19;79.98;100377.97;4984271;28;20080;-73
2021/07/06 07:16:05;;;;;;;4.32;1.35;;;;;;;19.13;79.52;100377.31;4985831;28;20058;-73
2021/07/06 07:18:32;;;;;;;3.55;1.30;;;;;;;18.99;79.95;100356.94;4990240;28;20046;-72
2021/07/06 07:20:59;;;;;;;4.78;1.67;;;;;;;19.08;79.76;100379.53;4980486;28;20082;-71
2021/07/06 07:23:26;;;;;;;8.70;1.15;;;;;;;19.34;80.49;100385.00;4983659;28;20050;-72
2021/07/06 07:25:53;;;;;;;5.50;1.20;;;;;;;19.68;79.91;100372.59;4989268;28;20479;-71
2021/07/06 07:28:23;;;;;;;3.58;1.10;;;;;;;19.89;79.33;100378.25;4977239;28;20121;-72
2021/07/06 07:30:50;;;;;;;;;;;;;;;19.92;81.04;100371.88;4981030;28;20050;-71
2021/07/06 07:33:16;;;;;;;2.97;1.02;;;;;;;20.01;79.36;100392.47;4990356;28;20378;-71
2021/07/06 07:35:43;;;;;;;5.10;1.10;;;;;;;20.08;79.04;100383.41;4975897;28;20047;-71
2021/07/06 07:38:10;;;;;;;2.05;1.33;;;;;;;20.45;78.93;100400.53;4981860;28;20105;-72
2021/07/06 07:40:37;;;;;;;4.57;1.02;;;;;;;20.70;78.68;100388.06;4987364;28;20047;-72
2021/07/06 07:43:07;;;;;;;8.98;1.38;;;;;;;21.11;78.31;100393.88;4990545;28;20463;-73
2021/07/06 07:45:37;;;;;;;;;;;;;;;21.22;80.46;100397.91;4993331;28;20101;-72
2021/07/06 07:48:05;;;;;;;4.10;0.90;;;;;;;21.46;78.58;100408.44;4992386;28;19921;-73
2021/07/06 07:50:32;;;;;;;4.35;1.00;;;;;;;21.68;77.95;100395.72;5010649;28;20046;-72
2021/07/06 07:52:59;;;;;;;2.75;1.20;;;;;;;22.22;77.67;100409.50;4989899;28;20074;-73
2021/07/06 07:55:25;;;;;;;3.72;0.80;;;;;;;22.47;76.54;100410.22;4992030;28;20050;-73
2021/07/06 07:57:52;;;;;;;10.65;1.30;;;;;;;22.39;75.97;100403.50;4985664;28;20573;-73
2021/07/06 08:00:19;;;;;;;6.57;0.90;;;;;;;22.38;76.19;100393.31;4982714;28;20574;-74
2021/07/06 08:02:46;;;;;;;11.70;1.48;;;;;;;22.84;75.88;100418.53;4987967;28;20080;-74
2021/07/06 08:05:15;;;;;;;5.43;1.17;;;;;;;23.15;75.53;100400.63;4982745;28;20053;-73
2021/07/06 08:07:42;;;;;;;5.05;1.27;;;;;;;23.41;74.84;100409.38;4983137;28;20077;-73
2021/07/06 08:10:10;;;;;;;5.22;0.85;;;;;;;23.48;75.17;100403.00;4988624;28;20130;-76
2021/07/06 08:12:37;;;;;;;3.00;1.15;;;;;;;23.68;74.49;100412.47;4989187;28;20544;-72
2021/07/06 08:15:05;;;;;;;2.63;1.15;;;;;;;23.94;73.85;100408.16;4987615;28;20517;-70
2021/07/06 08:17:32;;;;;;;5.40;1.17;;;;;;;24.02;72.64;100396.50;4981603;28;20082;-70
2021/07/06 08:20:01;;;;;;;3.38;1.25;;;;;;;23.96;73.02;100411.44;4988862;28;20148;-69
2021/07/06 08:22:28;;;;;;;;;;;;;;;23.55;76.38;100402.34;4988391;28;20138;-67
2021/07/06 08:24:55;;;;;;;4.32;1.77;;;;;;;23.43;74.06;100406.16;4991441;28;19969;-67
2021/07/06 08:27:22;;;;;;;4.82;1.20;;;;;;;23.35;74.11;100415.72;4992649;28;20078;-67
2021/07/06 08:29:49;;;;;;;3.03;1.50;;;;;;;22.87;73.48;100390.13;4987162;28;20093;-68
2021/07/06 08:32:16;;;;;;;4.10;1.10;;;;;;;22.80;73.22;100412.69;4985801;28;20089;-66
2021/07/06 08:34:43;;;;;;;2.85;1.50;;;;;;;22.58;73.03;100427.59;4980582;28;20065;-65
2021/07/06 08:37:10;;;;;;;5.45;1.23;;;;;;;22.30;73.24;100416.25;4980140;28;20161;-63
2021/07/06 08:39:37;;;;;;;5.72;1.38;;;;;;;22.42;72.92;100430.38;4990844;28;20066;-63
2021/07/06 08:42:10;;;;;;;3.83;1.17;;;;;;;22.78;72.24;100437.88;4996027;28;20521;-67
2021/07/06 08:44:39;;;;;;;1.83;0.82;;;;;;;22.71;72.08;100415.75;4988138;28;20122;-66
2021/07/06 08:47:09;;;;;;;5.03;1.52;;;;;;;22.83;72.37;100433.94;4987406;28;20509;-69
2021/07/06 08:49:39;;;;;;;4.00;1.60;;;;;;;23.16;71.27;100431.56;4984864;28;20144;-69
2021/07/06 08:52:11;;;;;;;2.63;1.27;;;;;;;23.34;70.23;100414.91;4991559;28;20061;-68
2021/07/06 08:54:38;;;;;;;4.78;0.95;;;;;;;23.67;70.01;100427.06;4978419;28;20128;-69
2021/07/06 08:57:06;;;;;;;7.65;1.48;;;;;;;24.07;69.76;100424.72;4990959;28;20081;-74
2021/07/06 08:59:40;;;;;;;14.82;1.35;;;;;;;24.24;67.89;100431.16;4983215;28;20051;-73
2021/07/06 09:02:11;;;;;;;8.23;2.22;;;;;;;23.89;65.38;100441.44;4980150;28;20051;-66
2021/07/06 09:04:46;;;;;;;4.72;1.05;;;;;;;23.42;66.63;100445.25;4987078;28;20047;-68
2021/07/06 09:07:13;;;;;;;4.00;1.45;;;;;;;23.00;67.81;100439.28;4990435;28;20159;-71
2021/07/06 09:09:40;;;;;;;4.22;1.10;;;;;;;22.67;67.21;100449.00;4985838;28;20104;-67
2021/07/06 09:12:10;;;;;;;11.10;1.70;;;;;;;22.40;67.17;100433.59;4996246;28;20129;-68
2021/07/06 09:14:41;;;;;;;6.70;1.23;;;;;;;23.05;66.94;100427.63;4986676;28;20068;-66
2021/07/06 09:17:12;;;;;;;9.05;2.97;;;;;;;24.19;66.17;100440.84;4989429;28;20549;-67
2021/07/06 09:19:41;;;;;;;6.20;2.00;;;;;;;24.93;64.99;100394.97;4985711;28;20038;-67
2021/07/06 09:22:19;;;;;;;5.80;1.73;;;;;;;25.50;65.96;100437.97;5003967;28;20085;-67
2021/07/06 09:24:49;;;;;;;6.22;1.85;;;;;;;25.43;65.05;100437.84;4990781;28;20411;-67
2021/07/06 09:27:32;;;;;;;;;;;;;;;25.01;70.72;100444.50;4990740;28;20130;-67
2021/07/06 09:30:18;;;;;;;5.07;1.20;;;;;;;24.54;68.43;100454.22;4981429;28;19969;-67
2021/07/06 09:32:46;;;;;;;3.15;1.10;;;;;;;24.45;66.99;100445.09;4982642;28;20042;-67
2021/07/06 09:35:22;;;;;;;4.55;1.23;;;;;;;24.42;66.27;100443.00;4995434;28;20049;-67
2021/07/06 09:37:54;;;;;;;6.05;1.00;;;;;;;24.04;66.58;100422.63;4988010;28;20082;-67
2021/07/06 09:40:22;;;;;;;10.05;1.20;;;;;;;24.62;65.59;100456.03;4987140;28;20436;-68
2021/07/06 09:43:37;;;;;;;5.43;1.60;;;;;;;25.01;66.42;100416.75;4989006;28;20104;-68
2021/07/06 09:46:09;;;;;;;3.35;1.45;;;;;;;25.46;64.80;100451.38;4977737;28;20488;-68
2021/07/06 09:48:43;;;;;;;6.82;1.00;;;;;;;25.25;64.30;100454.72;4985869;28;20050;-68
2021/07/06 09:51:11;;;;;;;1.52;0.90;;;;;;;24.69;64.13;100459.03;4979854;28;20112;-68
2021/07/06 09:53:39;;;;;;;5.63;1.25;;;;;;;24.31;64.34;100425.63;4990913;28;20078;-68
2021/07/06 09:56:15;;;;;;;3.97;1.08;;;;;;;24.53;64.52;100444.03;4987508;28;20138;-65
2021/07/06 09:58:53;;;;;;;3.78;1.15;;;;;;;24.80;63.80;100447.78;4988848;28;20173;-68
2021/07/06 10:01:21;;;;;;;5.20;1.20;;;;;;;25.09;62.77;100469.09;4988096;28;20418;-68
2021/07/06 10:03:50;;;;;;;3.58;1.10;;;;;;;25.84;61.68;100458.09;4992043;28;20058;-68
2021/07/06 10:06:20;;;;;;;2.67;1.40;;;;;;;26.41;60.90;100451.09;4988923;28;20081;-66
2021/07/06 10:08:48;;;;;;;9.00;1.60;;;;;;;26.28;60.71;100460.34;4990839;28;20141;-65
2021/07/06 10:11:15;;;;;;;5.95;1.27;;;;;;;25.90;61.13;100463.09;4993698;28;20549;-65
2021/07/06 10:13:42;;;;;;;2.72;1.10;;;;;;;25.37;60.96;100456.53;4990558;28;20046;-66
2021/07/06 10:16:09;;;;;;;5.28;1.30;;;;;;;25.26;60.77;100460.06;4983806;28;20060;-67
2021/07/06 10:18:36;;;;;;;6.53;0.80;;;;;;;26.06;60.25;100476.41;4993400;28;20077;-66
2021/07/06 10:21:05;;;;;;;4.97;1.52;;;;;;;26.07;58.70;100473.16;4989979;28;20046;-66
2021/07/06 10:23:36;;;;;;;7.13;1.40;;;;;;;25.79;58.70;100479.28;4986431;28;20082;-65
2021/07/06 10:26:06;;;;;;;4.90;1.83;;;;;;;25.83;58.38;100480.16;4980388;28;20145;-68
2021/07/06 10:28:33;;;;;;;11.77;1.27;;;;;;;26.10;59.05;100486.69;4986585;28;20081;-70
2021/07/06 10:31:15;;;;;;;2.92;1.10;;;;;;;26.28;58.45;100488.97;4987804;28;20809;-65
2021/07/06 10:33:47;;;;;;;3.55;1.10;;;;;;;26.46;57.57;100487.13;4985073;28;20475;-73
2021/07/06 10:36:18;;;;;;;2.40;0.82;;;;;;;26.65;56.09;100474.72;4981870;28;20461;-71
2021/07/06 10:38:45;;;;;;;4.32;1.13;;;;;;;27.23;56.22;100494.16;4982673;28;20550;-72
2021/07/06 10:41:34;;;;;;;2.58;0.90;;;;;;;27.57;56.66;100485.44;4982296;28;20134;-71
2021/07/06 10:44:03;;;;;;;1.73;0.73;;;;;;;28.09;55.40;100489.06;4977858;28;20053;-71
2021/07/06 10:46:44;;;;;;;2.47;0.75;;;;;;;28.45;54.12;100480.66;4985574;28;20252;-70
2021/07/06 10:49:33;;;;;;;5.38;1.00;;;;;;;28.27;54.44;100487.13;4991599;28;20241;-70
2021/07/06 10:52:02;;;;;;;3.60;1.00;;;;;;;28.00;53.03;100503.81;4981786;28;20157;-71
2021/07/06 10:54:34;;;;;;;2.42;1.33;;;;;;;27.67;52.25;100490.44;4990885;28;20085;-72
2021/07/06 10:57:07;;;;;;;4.43;1.33;;;;;;;27.34;52.34;100497.13;4986319;28;20050;-69
2021/07/06 10:59:35;;;;;;;4.40;1.70;;;;;;;27.81;51.41;100484.00;4988596;28;20174;-77
2021/07/06 11:02:07;;;;;;;4.38;1.05;;;;;;;27.87;50.61;100482.41;4979291;28;20483;-75
2021/07/06 11:04:42;;;;;;;5.03;1.25;;;;;;;28.06;48.61;100498.47;4988782;28;20073;-75
2021/07/06 11:07:10;;;;;;;6.38;1.02;;;;;;;27.81;48.46;100504.91;4983447;28;20125;-65
2021/07/06 11:09:37;;;;;;;3.60;0.90;;;;;;;27.64;49.28;100509.25;4988291;28;20974;-64
2021/07/06 11:12:26;;;;;;;4.20;1.30;;;;;;;27.58;49.54;100504.28;4983897;28;20510;-63
2021/07/06 11:14:55;;;;;;;6.47;1.65;;;;;;;27.68;49.06;100508.47;4991174;28;20070;-64
2021/07/06 11:17:33;;;;;;;4.45;1.55;;;;;;;27.75;47.95;100497.84;4981878;28;20542;-63
2021/07/06 11:20:04;;;;;;;3.40;1.00;;;;;;;27.76;47.01;100511.03;4978217;28;20050;-63
2021/07/06 11:22:40;;;;;;;7.43;1.33;;;;;;;27.45;47.15;100511.53;4987154;28;20454;-63
2021/07/06 11:25:21;;;;;;;4.45;1.40;;;;;;;27.51;46.62;100519.38;4986113;28;20565;-64
2021/07/06 11:28:00;;;;;;;3.40;1.35;;;;;;;27.57;46.61;100526.41;4999732;28;20494;-65
2021/07/06 11:30:39;;;;;;;3.30;1.20;;;;;;;27.11;45.99;100515.31;4986906;28;20046;-63